createdAt,value
2019-01-20T00:00:57.755Z,191.27
2019-01-20T00:03:26.156Z,217.10
2019-01-20T00:05:54.637Z,227.80
2019-01-20T00:08:23.071Z,223.70
2019-01-20T00:10:52.466Z,215.30
2019-01-20T00:13:20.927Z,220.37
2019-01-20T00:15:49.498Z,197.23
2019-01-20T00:18:17.927Z,200.93
2019-01-20T00:20:46.322Z,203.33
2019-01-20T00:23:14.995Z,201.30
2019-01-20T00:25:43.411Z,227.67
2019-01-20T00:28:11.873Z,218.47
2019-01-20T00:30:40.312Z,174.90
2019-01-20T00:33:08.708Z,176.17
2019-01-20T00:35:37.112Z,181.80
2019-01-20T00:38:05.821Z,184.00
2019-01-20T00:40:34.240Z,205.17
2019-01-20T00:43:02.776Z,216.63
2019-01-20T00:45:31.366Z,207.33
2019-01-20T00:47:59.911Z,230.97
2019-01-20T00:50:28.367Z,225.47
2019-01-20T00:52:56.819Z,210.23
2019-01-20T00:55:25.289Z,178.60
2019-01-20T00:57:53.694Z,178.50
2019-01-20T01:00:25.204Z,171.37
2019-01-20T01:02:53.611Z,99.10
2019-01-20T01:05:22.091Z,77.77
2019-01-20T01:07:52.019Z,81.23
2019-01-20T01:10:20.415Z,99.33
2019-01-20T01:12:49.804Z,114.63
2019-01-20T01:15:18.246Z,160.20
2019-01-20T01:17:46.658Z,162.40
2019-01-20T01:20:17.607Z,144.00
2019-01-20T01:22:46.187Z,184.77
2019-01-20T01:25:16.019Z,179.00
2019-01-20T01:27:44.418Z,154.23
2019-01-20T01:30:16.346Z,133.70
2019-01-20T01:32:44.788Z,124.27
2019-01-20T01:35:13.328Z,109.60
2019-01-20T01:37:41.768Z,116.23
2019-01-20T01:40:12.709Z,117.23
2019-01-20T01:42:41.311Z,114.77
2019-01-20T01:45:15.002Z,113.63
2019-01-20T01:47:43.409Z,117.03
2019-01-20T01:50:12.939Z,117.90
2019-01-20T01:52:41.374Z,116.90
2019-01-20T01:55:10.508Z,121.37
2019-01-20T01:57:43.133Z,123.70
2019-01-20T02:00:20.215Z,128.60
2019-01-20T02:02:48.807Z,148.97
2019-01-20T02:05:17.225Z,142.97
2019-01-20T02:07:45.727Z,145.70
2019-01-20T02:10:16.366Z,148.60
2019-01-20T02:12:51.944Z,153.97
2019-01-20T02:15:21.811Z,151.43
2019-01-20T02:17:50.215Z,155.97
2019-01-20T02:20:23.282Z,163.10
2019-01-20T02:22:51.818Z,172.33
2019-01-20T02:25:20.596Z,175.00
2019-01-20T02:27:49.919Z,173.60
2019-01-20T02:30:23.622Z,157.50
2019-01-20T02:32:52.213Z,156.83
2019-01-20T02:35:20.870Z,144.43
2019-01-20T02:37:49.379Z,136.70
2019-01-20T02:40:17.954Z,133.30
2019-01-20T02:42:46.497Z,127.77
2019-01-20T02:45:15.934Z,124.63
2019-01-20T02:47:44.334Z,149.10
2019-01-20T02:50:15.478Z,153.73
2019-01-20T02:52:43.867Z,159.17
2019-01-20T02:55:12.373Z,151.10
2019-01-20T02:57:40.883Z,122.30
2019-01-20T03:00:22.824Z,116.93
2019-01-20T03:02:51.333Z,120.53
2019-01-20T03:05:20.870Z,128.47
2019-01-20T03:07:49.273Z,122.60
2019-01-20T03:10:17.764Z,130.57
2019-01-20T03:12:46.159Z,128.33
2019-01-20T03:15:14.925Z,125.20
2019-01-20T03:17:44.467Z,126.43
2019-01-20T03:20:16.208Z,117.90
2019-01-20T03:22:44.676Z,117.93
2019-01-20T03:25:15.063Z,125.93
2019-01-20T03:27:43.574Z,127.00
2019-01-20T03:30:14.957Z,129.07
2019-01-20T03:32:43.408Z,135.03
2019-01-20T03:35:12.644Z,124.13
2019-01-20T03:37:41.187Z,113.23
2019-01-20T03:40:12.692Z,117.40
2019-01-20T03:42:41.254Z,121.47
2019-01-20T03:45:12.683Z,122.17
2019-01-20T03:47:41.156Z,124.07
2019-01-20T03:50:11.736Z,119.03
2019-01-20T03:52:40.144Z,116.23
2019-01-20T03:55:14.189Z,118.70
2019-01-20T03:57:42.583Z,123.93
2019-01-20T04:00:14.263Z,128.10
2019-01-20T04:02:42.879Z,132.70
2019-01-20T04:05:11.283Z,125.17
2019-01-20T04:07:39.679Z,131.90
2019-01-20T04:10:15.892Z,128.17
2019-01-20T04:12:44.298Z,121.20
2019-01-20T04:15:14.397Z,123.70
2019-01-20T04:17:42.830Z,130.10
2019-01-20T04:20:13.828Z,128.60
2019-01-20T04:22:42.233Z,126.53
2019-01-20T04:25:16.173Z,127.63
2019-01-20T04:27:44.571Z,138.87
2019-01-20T04:30:17.680Z,132.80
2019-01-20T04:32:46.277Z,138.00
2019-01-20T04:35:14.683Z,142.83
2019-01-20T04:37:43.115Z,141.70
2019-01-20T04:40:14.677Z,146.97
2019-01-20T04:42:43.218Z,143.03
2019-01-20T04:45:13.461Z,140.70
2019-01-20T04:47:41.897Z,134.67
2019-01-20T04:50:13.824Z,137.80
2019-01-20T04:52:42.295Z,136.00
2019-01-20T04:55:13.571Z,131.40
2019-01-20T04:57:43.300Z,141.00
2019-01-20T05:00:14.764Z,143.33
2019-01-20T05:02:43.199Z,145.10
2019-01-20T05:05:11.595Z,147.83
2019-01-20T05:07:39.998Z,146.90
2019-01-20T05:10:11.393Z,149.70
2019-01-20T05:12:39.791Z,145.33
2019-01-20T05:15:11.138Z,141.53
2019-01-20T05:17:39.648Z,131.63
2019-01-20T05:20:09.783Z,122.23
2019-01-20T05:22:39.257Z,142.67
2019-01-20T05:25:09.844Z,140.63
2019-01-20T05:27:38.431Z,142.53
2019-01-20T05:30:10.120Z,138.53
2019-01-20T05:32:38.767Z,131.03
2019-01-20T05:35:08.806Z,129.30
2019-01-20T05:37:37.276Z,130.13
2019-01-20T05:40:08.780Z,140.00
2019-01-20T05:42:37.182Z,137.37
2019-01-20T05:45:09.083Z,138.93
2019-01-20T05:47:37.566Z,136.87
2019-01-20T05:50:09.339Z,130.77
2019-01-20T05:52:37.743Z,122.23
2019-01-20T05:55:08.835Z,127.83
2019-01-20T05:57:37.395Z,125.40
2019-01-20T06:00:20.403Z,115.67
2019-01-20T06:02:48.814Z,112.57
2019-01-20T06:05:17.370Z,110.80
2019-01-20T06:07:45.804Z,105.27
2019-01-20T06:10:14.377Z,103.73
2019-01-20T06:12:42.775Z,101.33
2019-01-20T06:15:14.058Z,107.53
2019-01-20T06:17:42.459Z,105.53
2019-01-20T06:20:10.845Z,105.50
2019-01-20T06:22:39.306Z,105.70
2019-01-20T06:25:09.403Z,104.23
2019-01-20T06:27:38.087Z,106.60
2019-01-20T06:30:12.633Z,111.60
2019-01-20T06:32:41.027Z,109.40
2019-01-20T06:35:09.463Z,105.30
2019-01-20T06:37:37.900Z,142.68
2019-01-20T06:40:07.835Z,116.57
2019-01-20T06:42:36.231Z,108.97
2019-01-20T06:45:07.943Z,56.07
2019-01-20T06:47:36.319Z,58.37
2019-01-20T06:50:08.270Z,110.37
2019-01-20T06:52:36.706Z,102.43
2019-01-20T06:55:06.649Z,88.43
2019-01-20T06:57:35.117Z,81.57
2019-01-20T07:00:05.082Z,78.10
2019-01-20T07:02:33.640Z,82.13
2019-01-20T07:05:02.043Z,85.17
2019-01-20T07:07:30.468Z,108.73
2019-01-20T07:09:58.941Z,116.57
2019-01-20T07:12:27.410Z,105.47
2019-01-20T07:14:55.887Z,97.97
2019-01-20T07:17:24.296Z,78.60
2019-01-20T07:19:52.831Z,62.40
2019-01-20T07:22:21.263Z,57.93
2019-01-20T07:24:49.663Z,55.33
2019-01-20T07:27:19.008Z,62.00
2019-01-20T07:29:47.479Z,79.97
2019-01-20T07:32:16.859Z,97.20
2019-01-20T07:34:45.255Z,102.47
2019-01-20T07:37:13.688Z,101.37
2019-01-20T07:39:42.230Z,100.67
2019-01-20T07:42:10.798Z,113.77
2019-01-20T07:44:39.246Z,123.23
2019-01-20T07:47:08.054Z,107.20
2019-01-20T07:49:36.778Z,90.93
2019-01-20T07:52:05.293Z,95.00
2019-01-20T07:54:33.695Z,96.23
2019-01-20T07:57:02.373Z,96.67
2019-01-20T07:59:31.088Z,103.20
2019-01-20T08:02:17.576Z,99.17
2019-01-20T08:04:46.018Z,113.17
2019-01-20T08:07:14.478Z,127.40
2019-01-20T08:09:43.090Z,114.17
2019-01-20T08:12:11.846Z,101.03
2019-01-20T08:14:40.643Z,101.43
2019-01-20T08:17:09.057Z,100.30
2019-01-20T08:19:37.501Z,118.73
2019-01-20T08:22:06.126Z,87.23
2019-01-20T08:24:34.537Z,110.97
2019-01-20T08:27:03.048Z,131.23
2019-01-20T08:29:32.636Z,102.17
2019-01-20T08:32:01.733Z,88.57
2019-01-20T08:34:30.349Z,79.20
2019-01-20T08:36:58.939Z,81.13
2019-01-20T08:40:04.049Z,79.27
2019-01-20T08:42:32.436Z,75.27
2019-01-20T08:45:00.834Z,66.53
2019-01-20T08:47:31.022Z,60.00
2019-01-20T08:50:00.004Z,61.63
2019-01-20T08:52:28.716Z,55.50
2019-01-20T08:54:57.525Z,65.33
2019-01-20T08:57:25.992Z,54.00
2019-01-20T08:59:54.496Z,74.83
2019-01-20T09:02:23.224Z,78.83
2019-01-20T09:04:51.905Z,69.47
2019-01-20T09:07:20.423Z,75.30
2019-01-20T09:09:49.147Z,72.17
2019-01-20T09:12:17.757Z,67.13
2019-01-20T09:14:46.395Z,56.70
2019-01-20T09:17:15.278Z,57.63
2019-01-20T09:19:43.976Z,48.40
2019-01-20T09:22:12.569Z,46.53
2019-01-20T09:24:41.788Z,43.23
2019-01-20T09:27:10.209Z,48.20
2019-01-20T09:29:38.989Z,32.57
2019-01-20T09:32:08.335Z,22.43
2019-01-20T09:34:37.171Z,40.73
2019-01-20T09:37:05.635Z,69.93
2019-01-20T09:39:34.095Z,78.83
2019-01-20T09:42:02.824Z,75.23
2019-01-20T09:44:31.622Z,72.87
2019-01-20T09:47:00.288Z,55.97
2019-01-20T09:49:28.839Z,69.27
2019-01-20T09:51:57.450Z,37.73
2019-01-20T09:54:26.417Z,61.10
2019-01-20T09:56:54.896Z,82.70
2019-01-20T09:59:23.361Z,88.67
2019-01-20T10:01:51.995Z,84.57
2019-01-20T10:04:20.920Z,61.57
2019-01-20T10:06:49.940Z,51.50
2019-01-20T10:09:18.691Z,46.47
2019-01-20T10:11:47.428Z,42.20
2019-01-20T10:14:16.219Z,31.70
2019-01-20T10:16:46.910Z,35.30
2019-01-20T10:19:15.288Z,33.33
2019-01-20T10:21:43.757Z,33.83
2019-01-20T10:24:12.555Z,29.27
2019-01-20T10:26:41.314Z,28.40
2019-01-20T10:29:09.841Z,22.17
2019-01-20T10:31:38.501Z,18.57
2019-01-20T10:34:07.992Z,21.53
2019-01-20T10:36:36.921Z,18.37
2019-01-20T10:39:09.671Z,21.23
2019-01-20T10:41:38.367Z,21.20
2019-01-20T10:44:07.456Z,20.90
2019-01-20T10:46:36.035Z,21.43
2019-01-20T10:49:05.357Z,21.53
2019-01-20T10:51:35.015Z,22.17
2019-01-20T10:54:04.257Z,28.17
2019-01-20T10:56:32.992Z,25.93
2019-01-20T10:59:02.085Z,24.80
2019-01-20T11:01:32.366Z,27.60
2019-01-20T11:04:02.212Z,32.00
2019-01-20T11:06:31.771Z,25.93
2019-01-20T11:09:00.344Z,27.90
2019-01-20T11:11:29.015Z,27.80
2019-01-20T11:14:02.069Z,27.20
2019-01-20T11:16:30.769Z,26.87
2019-01-20T11:19:00.259Z,29.33
2019-01-20T11:21:29.890Z,35.27
2019-01-20T11:24:05.057Z,36.97
2019-01-20T11:26:35.426Z,37.10
2019-01-20T11:29:03.815Z,40.53
2019-01-20T11:31:32.558Z,38.17
2019-01-20T11:34:01.180Z,35.43
2019-01-20T11:36:30.133Z,32.17
2019-01-20T11:39:00.992Z,32.57
2019-01-20T11:41:30.800Z,31.90
2019-01-20T11:44:00.033Z,35.90
2019-01-20T11:46:29.691Z,37.23
2019-01-20T11:48:58.291Z,34.73
2019-01-20T11:51:29.327Z,36.47
2019-01-20T11:54:01.471Z,36.93
2019-01-20T11:56:30.508Z,36.73
2019-01-20T11:58:59.698Z,35.93
2019-01-20T12:01:28.239Z,38.37
2019-01-20T12:03:57.541Z,33.00
2019-01-20T12:06:29.836Z,35.50
2019-01-20T12:08:58.458Z,36.87
2019-01-20T12:11:31.307Z,42.57
2019-01-20T12:14:01.958Z,38.77
2019-01-20T12:16:36.538Z,40.40
2019-01-20T12:19:09.980Z,43.80
2019-01-20T12:21:40.759Z,45.03
2019-01-20T12:24:13.235Z,43.97
2019-01-20T12:26:46.215Z,43.77
2019-01-20T12:29:15.723Z,44.27
2019-01-20T12:31:44.748Z,45.27
2019-01-20T12:34:17.236Z,43.77
2019-01-20T12:36:49.702Z,46.77
2019-01-20T12:39:19.992Z,48.80
2019-01-20T12:41:50.540Z,52.50
2019-01-20T12:44:22.512Z,51.17
2019-01-20T12:47:00.637Z,49.30
2019-01-20T12:49:40.468Z,45.13
2019-01-20T12:52:16.379Z,47.60
2019-01-20T12:55:03.044Z,49.30
2019-01-20T12:57:37.716Z,51.67
2019-01-20T13:00:20.769Z,55.47
2019-01-20T13:02:55.068Z,57.17
2019-01-20T13:05:28.838Z,52.00
2019-01-20T13:07:59.966Z,55.40
2019-01-20T13:10:31.671Z,79.97
2019-01-20T13:13:05.202Z,60.47
2019-01-20T13:15:37.364Z,59.47
2019-01-20T13:18:12.147Z,59.67
2019-01-20T13:20:45.370Z,64.77
2019-01-20T13:23:16.526Z,76.00
2019-01-20T13:25:49.884Z,72.93
2019-01-20T13:28:31.476Z,66.80
2019-01-20T13:31:04.626Z,67.50
2019-01-20T13:33:34.715Z,83.87
2019-01-20T13:36:07.070Z,268.97
2019-01-20T13:38:34.868Z,282.30
2019-01-20T13:41:03.517Z,115.67
2019-01-20T13:43:32.191Z,90.70
2019-01-20T13:46:00.845Z,92.80
2019-01-20T13:48:29.416Z,82.77
2019-01-20T13:50:58.403Z,93.50
2019-01-20T13:53:26.856Z,147.90
2019-01-20T13:56:01.183Z,151.03
2019-01-20T13:58:26.258Z,163.00
2019-01-20T14:00:56.025Z,138.83
2019-01-20T14:03:24.776Z,99.47
2019-01-20T14:05:53.316Z,105.83
2019-01-20T14:08:22.087Z,121.83
2019-01-20T14:10:52.332Z,243.77
2019-01-20T14:13:20.744Z,242.00
2019-01-20T14:15:51.138Z,175.53
2019-01-20T14:18:20.299Z,171.53
2019-01-20T14:20:48.980Z,270.43
2019-01-20T14:23:17.463Z,211.30
2019-01-20T14:25:46.026Z,184.10
2019-01-20T14:28:15.017Z,129.27
2019-01-20T14:30:43.922Z,139.30
2019-01-20T14:33:12.433Z,98.33
2019-01-20T14:35:41.043Z,101.47
2019-01-20T14:38:09.547Z,93.50
2019-01-20T14:40:38.607Z,77.87
2019-01-20T14:43:08.216Z,79.83
2019-01-20T14:45:37.004Z,100.47
2019-01-20T14:48:05.629Z,113.67
2019-01-20T14:50:34.236Z,98.63
2019-01-20T14:53:02.730Z,103.53
2019-01-20T14:55:31.618Z,75.33
2019-01-20T14:58:00.444Z,87.83
2019-01-20T15:00:34.573Z,87.63
2019-01-20T15:03:03.179Z,87.60
2019-01-20T15:05:31.534Z,86.67
2019-01-20T15:08:00.135Z,78.93
2019-01-20T15:10:29.070Z,74.83
2019-01-20T15:12:57.513Z,79.07
2019-01-20T15:15:29.152Z,74.97
2019-01-20T15:17:57.723Z,71.80
2019-01-20T15:20:26.141Z,75.30
2019-01-20T15:22:54.589Z,71.80
2019-01-20T15:25:23.372Z,75.53
2019-01-20T15:27:51.909Z,103.67
2019-01-20T15:30:22.880Z,77.17
2019-01-20T15:32:51.329Z,77.03
2019-01-20T15:35:19.871Z,94.73
2019-01-20T15:37:48.269Z,95.00
2019-01-20T15:40:21.803Z,103.97
2019-01-20T15:42:50.548Z,89.03
2019-01-20T15:45:21.855Z,70.67
2019-01-20T15:47:50.428Z,73.03
2019-01-20T15:50:24.270Z,107.27
2019-01-20T15:52:52.758Z,98.37
2019-01-20T15:55:21.617Z,98.70
2019-01-20T15:57:50.021Z,97.27
2019-01-20T16:00:27.090Z,109.23
2019-01-20T16:02:55.473Z,106.97
2019-01-20T16:05:24.728Z,100.40
2019-01-20T16:07:53.496Z,96.93
2019-01-20T16:10:22.311Z,98.80
2019-01-20T16:12:50.928Z,112.93
2019-01-20T16:15:25.372Z,103.27
2019-01-20T16:17:55.102Z,124.87
2019-01-20T16:20:24.191Z,259.77
2019-01-20T16:22:53.243Z,273.30
2019-01-20T16:25:27.510Z,219.97
2019-01-20T16:27:55.998Z,149.53
2019-01-20T16:30:27.270Z,112.87
2019-01-20T16:32:55.887Z,107.07
2019-01-20T16:35:25.195Z,107.73
2019-01-20T16:37:54.284Z,135.13
2019-01-20T16:40:24.635Z,94.60
2019-01-20T16:42:53.298Z,95.77
2019-01-20T16:45:32.845Z,105.23
2019-01-20T16:47:59.217Z,107.60
2019-01-20T16:50:27.633Z,114.70
2019-01-20T16:52:56.086Z,121.87
2019-01-20T16:55:24.715Z,147.07
2019-01-20T16:57:53.326Z,154.27
2019-01-20T17:00:26.202Z,149.37
2019-01-20T17:02:56.630Z,126.80
2019-01-20T17:05:27.026Z,106.30
2019-01-20T17:07:56.409Z,96.13
2019-01-20T17:10:34.756Z,94.37
2019-01-20T17:13:05.934Z,92.20
2019-01-20T17:15:39.838Z,96.70
2019-01-20T17:18:08.529Z,103.00
2019-01-20T17:20:36.975Z,109.80
2019-01-20T17:23:05.599Z,107.27
2019-01-20T17:25:34.552Z,104.10
2019-01-20T17:28:04.672Z,116.17
2019-01-20T17:30:35.518Z,113.27
2019-01-20T17:33:05.743Z,136.20
2019-01-20T17:35:34.445Z,109.97
2019-01-20T17:38:03.339Z,108.80
2019-01-20T17:40:32.682Z,100.20
2019-01-20T17:43:02.285Z,101.63
2019-01-20T17:45:34.723Z,105.87
2019-01-20T17:48:06.255Z,112.07
2019-01-20T17:50:37.947Z,112.63
2019-01-20T17:53:08.528Z,111.67
2019-01-20T17:55:37.401Z,108.67
2019-01-20T17:58:06.692Z,113.77
2019-01-20T18:00:40.302Z,125.00
2019-01-20T18:03:09.644Z,134.87
2019-01-20T18:05:38.119Z,128.43
2019-01-20T18:08:06.672Z,126.83
2019-01-20T18:10:35.240Z,115.43
2019-01-20T18:13:03.763Z,99.07
2019-01-20T18:15:32.450Z,96.83
2019-01-20T18:18:00.972Z,95.17
2019-01-20T18:20:31.769Z,109.33
2019-01-20T18:23:00.476Z,94.30
2019-01-20T18:25:29.215Z,87.97
2019-01-20T18:27:58.121Z,87.67
2019-01-20T18:30:28.838Z,80.03
2019-01-20T18:32:57.615Z,96.57
2019-01-20T18:35:27.588Z,101.27
2019-01-20T18:37:56.615Z,95.80
2019-01-20T18:40:26.439Z,87.83
2019-01-20T18:42:54.947Z,88.93
2019-01-20T18:45:26.673Z,83.17
2019-01-20T18:47:55.455Z,82.47
2019-01-20T18:50:27.884Z,82.77
2019-01-20T18:52:56.647Z,93.00
2019-01-20T18:55:25.326Z,88.93
2019-01-20T18:57:54.217Z,83.50
2019-01-20T19:00:31.775Z,82.30
2019-01-20T19:03:01.030Z,82.40
2019-01-20T19:05:30.642Z,75.10
2019-01-20T19:07:59.606Z,72.00
2019-01-20T19:10:28.496Z,69.77
2019-01-20T19:12:56.897Z,67.87
2019-01-20T19:15:25.734Z,80.90
2019-01-20T19:17:54.754Z,128.03
2019-01-20T19:20:25.529Z,148.73
2019-01-20T19:22:56.763Z,164.40
2019-01-20T19:25:25.411Z,113.03
2019-01-20T19:27:53.963Z,110.30
2019-01-20T19:30:27.943Z,119.43
2019-01-20T19:32:56.371Z,122.67
2019-01-20T19:35:25.000Z,129.40
2019-01-20T19:37:53.716Z,131.20
2019-01-20T19:40:22.308Z,124.90
2019-01-20T19:42:50.757Z,116.80
2019-01-20T19:45:20.642Z,114.87
2019-01-20T19:47:49.305Z,114.70
2019-01-20T19:50:18.331Z,136.23
2019-01-20T19:52:47.889Z,118.20
2019-01-20T19:55:24.018Z,111.00
2019-01-20T19:57:52.895Z,109.97
2019-01-20T20:00:24.126Z,117.67
2019-01-20T20:02:52.739Z,97.77
2019-01-20T20:05:22.127Z,87.07
2019-01-20T20:07:51.450Z,93.00
2019-01-20T20:10:22.460Z,139.60
2019-01-20T20:12:51.078Z,120.00
2019-01-20T20:15:22.562Z,118.93
2019-01-20T20:17:51.668Z,113.23
2019-01-20T20:20:21.278Z,113.10
2019-01-20T20:22:50.464Z,112.07
2019-01-20T20:25:20.623Z,106.10
2019-01-20T20:27:49.462Z,111.83
2019-01-20T20:30:24.255Z,127.33
2019-01-20T20:32:52.767Z,116.50
2019-01-20T20:35:21.103Z,107.27
2019-01-20T20:37:49.658Z,118.07
2019-01-20T20:40:19.751Z,116.40
2019-01-20T20:42:48.527Z,138.40
2019-01-20T20:45:19.520Z,109.43
2019-01-20T20:47:48.228Z,100.47
2019-01-20T20:50:17.640Z,104.50
2019-01-20T20:52:46.771Z,90.43
2019-01-20T20:55:17.948Z,90.50
2019-01-20T20:57:46.790Z,93.17
2019-01-20T21:00:33.852Z,95.40
2019-01-20T21:03:05.273Z,98.70
2019-01-20T21:05:34.105Z,99.03
2019-01-20T21:08:03.185Z,95.23
2019-01-20T21:10:31.911Z,95.40
2019-01-20T21:13:00.396Z,103.47
2019-01-20T21:15:29.280Z,113.87
2019-01-20T21:17:57.726Z,127.00
2019-01-20T21:20:26.126Z,118.53
2019-01-20T21:22:54.725Z,107.23
2019-01-20T21:25:23.351Z,99.43
2019-01-20T21:27:51.813Z,96.53
2019-01-20T21:30:28.213Z,99.73
2019-01-20T21:32:56.684Z,91.13
2019-01-20T21:35:25.331Z,91.03
2019-01-20T21:37:54.291Z,108.40
2019-01-20T21:40:22.691Z,98.60
2019-01-20T21:42:51.099Z,103.80
2019-01-20T21:45:19.922Z,106.27
2019-01-20T21:47:48.732Z,106.30
2019-01-20T21:50:25.878Z,106.77
2019-01-20T21:52:54.616Z,104.60
2019-01-20T21:55:24.033Z,103.37
2019-01-20T21:57:52.544Z,95.77
2019-01-20T22:00:23.183Z,83.70
2019-01-20T22:02:51.652Z,78.10
2019-01-20T22:05:20.123Z,75.07
2019-01-20T22:07:48.658Z,67.90
2019-01-20T22:10:19.075Z,72.13
2019-01-20T22:12:48.058Z,76.97
2019-01-20T22:15:16.727Z,79.00
2019-01-20T22:17:46.128Z,70.83
2019-01-20T22:20:19.417Z,92.30
2019-01-20T22:22:47.820Z,91.83
2019-01-20T22:25:16.218Z,87.33
2019-01-20T22:27:44.677Z,89.50
2019-01-20T22:30:18.138Z,98.23
2019-01-20T22:32:46.848Z,80.47
2019-01-20T22:35:15.394Z,87.93
2019-01-20T22:37:43.900Z,91.30
2019-01-20T22:40:17.167Z,83.77
2019-01-20T22:42:45.675Z,85.43
2019-01-20T22:45:16.646Z,94.93
2019-01-20T22:47:45.032Z,85.60
2019-01-20T22:50:14.102Z,79.67
2019-01-20T22:52:42.690Z,68.90
2019-01-20T22:55:14.672Z,68.80
2019-01-20T22:57:44.167Z,66.43
2019-01-20T23:00:15.829Z,63.23
2019-01-20T23:02:44.303Z,71.33
2019-01-20T23:05:12.964Z,80.73
2019-01-20T23:07:41.573Z,74.90
2019-01-20T23:10:09.971Z,80.40
2019-01-20T23:12:38.415Z,75.70
2019-01-20T23:15:09.413Z,78.90
2019-01-20T23:17:37.823Z,77.93
2019-01-20T23:20:15.359Z,76.83
2019-01-20T23:22:43.790Z,74.67
2019-01-20T23:25:12.397Z,72.47
2019-01-20T23:27:40.958Z,78.33
2019-01-20T23:30:12.379Z,95.17
2019-01-20T23:32:40.775Z,105.57
2019-01-20T23:35:09.361Z,79.73
2019-01-20T23:37:37.767Z,89.17
2019-01-20T23:40:09.642Z,92.70
2019-01-20T23:42:38.260Z,94.63
2019-01-20T23:45:09.404Z,88.30
2019-01-20T23:47:37.804Z,85.07
2019-01-20T23:50:09.709Z,74.93
2019-01-20T23:52:38.290Z,70.80
2019-01-20T23:55:19.430Z,69.20
2019-01-20T23:58:37.793Z,64.83
